Time;durP1;ratioP1;P1;durP2;ratioP2;P2;SDS_P1;SDS_P2;PMS_P1;PMS_P2;Temp;Humidity;BMP_temperature;BMP_pressure;BME280_temperature;BME280_humidity;BME280_pressure;Samples;Min_cycle;Max_cycle;Signal;HPM_P1;HPM_P2
2022/08/26 00:01:52;;;;;;;7.57;5.53;;;25.30;71.50;;;;;;5115809;28;20209;-68
2022/08/26 00:04:22;;;;;;;11.63;5.23;;;25.30;71.60;;;;;;5100713;28;20198;-68
2022/08/26 00:06:50;;;;;;;9.60;5.43;;;25.30;72.00;;;;;;5113499;28;20200;-67
2022/08/26 00:09:18;;;;;;;6.23;5.63;;;25.30;72.20;;;;;;5114252;28;20239;-67
2022/08/26 00:11:45;;;;;;;7.17;5.50;;;25.30;72.20;;;;;;5103540;28;20212;-67
2022/08/26 00:14:15;;;;;;;6.37;5.10;;;25.20;72.30;;;;;;5112135;28;20202;-67
2022/08/26 00:16:43;;;;;;;9.53;5.53;;;25.20;72.40;;;;;;5116215;28;20225;-67
2022/08/26 00:19:16;;;;;;;8.57;5.67;;;25.10;72.50;;;;;;5102328;28;20567;-67
2022/08/26 00:21:46;;;;;;;9.07;5.60;;;25.10;72.60;;;;;;5116322;28;20201;-67
2022/08/26 00:24:17;;;;;;;8.03;5.87;;;25.10;72.70;;;;;;5120673;27;20201;-67
2022/08/26 00:26:45;;;;;;;7.20;5.37;;;25.00;72.80;;;;;;5107861;27;20210;-67
2022/08/26 00:29:12;;;;;;;11.43;5.97;;;25.00;72.90;;;;;;5104714;28;20258;-67
2022/08/26 00:31:40;;;;;;;6.80;5.67;;;25.00;72.80;;;;;;5113027;27;20728;-67
2022/08/26 00:34:08;;;;;;;6.83;5.20;;;25.00;73.10;;;;;;5115395;27;20605;-67
2022/08/26 00:36:38;;;;;;;7.43;5.70;;;25.00;73.40;;;;;;5121193;27;21288;-67
2022/08/26 00:39:07;;;;;;;13.13;6.27;;;25.00;73.40;;;;;;5125008;27;20212;-67
2022/08/26 00:41:36;;;;;;;10.40;6.23;;;24.90;73.30;;;;;;5111900;27;20215;-67
2022/08/26 00:44:04;;;;;;;7.77;6.10;;;24.90;73.30;;;;;;5092664;27;20223;-67
2022/08/26 00:46:37;;;;;;;10.33;6.23;;;24.80;73.20;;;;;;5100363;27;20209;-67
2022/08/26 00:49:37;;;;;;;9.57;6.13;;;24.80;73.40;;;;;;5102805;27;20221;-67
2022/08/26 00:52:08;;;;;;;10.40;5.97;;;24.60;73.40;;;;;;5119687;27;20208;-67
2022/08/26 00:54:45;;;;;;;8.50;5.80;;;24.60;73.60;;;;;;5090719;27;20255;-67
2022/08/26 00:57:16;;;;;;;9.70;6.03;;;24.60;73.80;;;;;;5114839;27;20283;-67
2022/08/26 00:59:50;;;;;;;11.80;6.57;;;24.60;74.00;;;;;;5117999;27;20251;-67
2022/08/26 01:02:17;;;;;;;7.83;5.93;;;24.60;74.10;;;;;;5126942;27;20214;-67
2022/08/26 01:04:54;;;;;;;9.53;6.00;;;24.50;74.30;;;;;;5112988;27;20203;-67
2022/08/26 01:07:25;;;;;;;5.97;5.43;;;24.50;74.30;;;;;;5121165;27;20203;-67
2022/08/26 01:09:54;;;;;;;7.90;5.67;;;24.50;74.20;;;;;;5105041;27;20227;-67
2022/08/26 01:12:23;;;;;;;8.70;5.57;;;24.50;74.00;;;;;;5115140;27;20204;-67
2022/08/26 01:14:51;;;;;;;7.27;5.93;;;24.50;73.70;;;;;;5117979;27;20360;-67
2022/08/26 01:17:18;;;;;;;6.80;5.93;;;24.50;73.70;;;;;;5100923;28;20551;-67
2022/08/26 01:19:51;;;;;;;9.10;7.10;;;24.50;73.70;;;;;;5076274;27;20647;-67
2022/08/26 01:22:31;;;;;;;10.20;6.17;;;24.50;73.70;;;;;;5119383;27;20587;-67
2022/08/26 01:25:00;;;;;;;6.63;5.97;;;24.50;73.80;;;;;;5117438;27;20204;-67
2022/08/26 01:27:31;;;;;;;8.47;5.97;;;24.50;73.70;;;;;;5120294;27;20202;-67
2022/08/26 01:30:01;;;;;;;7.93;5.97;;;24.50;73.60;;;;;;5104321;27;20669;-67
2022/08/26 01:32:31;;;;;;;8.07;6.00;;;24.40;73.40;;;;;;5122370;27;20195;-67
2022/08/26 01:34:59;;;;;;;8.93;5.80;;;24.40;73.40;;;;;;5122586;27;20621;-67
2022/08/26 01:37:33;;;;;;;8.87;5.43;;;24.40;73.40;;;;;;5090624;28;20201;-67
2022/08/26 01:40:02;;;;;;;9.63;5.80;;;24.40;73.40;;;;;;5114683;27;20207;-67
2022/08/26 01:42:29;;;;;;;8.93;6.90;;;24.30;73.40;;;;;;5101767;28;20277;-67
2022/08/26 01:45:02;;;;;;;13.40;7.30;;;24.20;73.90;;;;;;5123932;27;20192;-67
2022/08/26 01:47:32;;;;;;;7.90;7.20;;;24.20;74.30;;;;;;5119939;27;20200;-67
2022/08/26 01:50:03;;;;;;;8.47;7.03;;;24.10;74.50;;;;;;5118964;27;20219;-67
2022/08/26 01:52:34;;;;;;;7.77;6.63;;;24.10;74.80;;;;;;5119579;27;20651;-67
2022/08/26 01:55:01;;;;;;;7.93;7.17;;;24.10;75.10;;;;;;5118718;27;20527;-65
2022/08/26 01:57:29;;;;;;;9.83;6.73;;;24.10;75.10;;;;;;5116926;27;20625;-65
2022/08/26 02:00:03;;;;;;;11.57;6.53;;;24.10;75.20;;;;;;5102764;27;20298;-65
2022/08/26 02:02:42;;;;;;;8.60;7.10;;;24.10;75.60;;;;;;5104205;27;20251;-66
2022/08/26 02:05:15;;;;;;;8.57;6.77;;;24.10;75.60;;;;;;5112273;27;20196;-66
2022/08/26 02:07:43;;;;;;;9.50;7.60;;;24.00;75.70;;;;;;5118039;27;20208;-65
2022/08/26 02:10:11;;;;;;;9.23;6.47;;;24.00;76.00;;;;;;5102974;27;20226;-65
2022/08/26 02:12:39;;;;;;;9.13;6.80;;;24.00;76.80;;;;;;5123901;27;20196;-65
2022/08/26 02:15:11;;;;;;;10.73;6.47;;;24.00;76.10;;;;;;5103702;27;20211;-65
2022/08/26 02:17:44;;;;;;;8.00;7.20;;;24.00;76.40;;;;;;5120791;27;20252;-65
2022/08/26 02:20:15;;;;;;;10.30;6.93;;;24.00;76.50;;;;;;5115022;27;20200;-65
2022/08/26 02:22:44;;;;;;;9.00;7.47;;;23.90;77.30;;;;;;5099555;27;20560;-65
2022/08/26 02:25:36;;;;;;;12.17;6.87;;;23.90;76.80;;;;;;5117779;27;20214;-65
2022/08/26 02:28:04;;;;;;;11.37;7.40;;;23.90;76.80;;;;;;5109085;27;20208;-65
2022/08/26 02:30:32;;;;;;;11.03;7.13;;;23.90;76.90;;;;;;5100370;27;20196;-65
2022/08/26 02:33:02;;;;;;;8.03;6.30;;;23.80;77.00;;;;;;5098426;27;20568;-70
2022/08/26 02:35:32;;;;;;;9.63;6.70;;;23.80;77.20;;;;;;5100741;27;20193;-70
2022/08/26 02:37:59;;;;;;;8.63;7.03;;;23.80;77.40;;;;;;5115198;27;20208;-70
2022/08/26 02:40:30;;;;;;;9.73;7.33;;;23.70;77.50;;;;;;5123543;27;20206;-70
2022/08/26 02:42:58;;;;;;;10.90;7.07;;;23.70;77.60;;;;;;5120428;27;20232;-70
2022/08/26 02:45:27;;;;;;;10.67;7.23;;;23.70;77.60;;;;;;5094739;28;20213;-71
2022/08/26 02:47:56;;;;;;;11.43;7.93;;;23.70;77.50;;;;;;5097509;28;20201;-70
2022/08/26 02:50:26;;;;;;;8.40;7.57;;;23.60;77.70;;;;;;5100647;27;20226;-70
2022/08/26 02:52:53;;;;;;;9.03;8.07;;;23.60;77.90;;;;;;5106159;27;20620;-68
2022/08/26 02:55:20;;;;;;;7.57;6.83;;;23.50;78.10;;;;;;5118292;27;20207;-68
2022/08/26 02:57:51;;;;;;;8.30;7.40;;;23.50;78.20;;;;;;5120679;27;20192;-68
2022/08/26 03:00:18;;;;;;;11.57;7.30;;;23.50;78.40;;;;;;5119889;27;20204;-68
2022/08/26 03:02:45;;;;;;;11.70;7.07;;;23.50;78.50;;;;;;5116300;27;20287;-68
2022/08/26 03:05:12;;;;;;;9.63;7.80;;;23.50;78.40;;;;;;5122278;27;20203;-68
2022/08/26 03:07:42;;;;;;;9.83;7.10;;;23.50;78.30;;;;;;5099952;28;20209;-68
2022/08/26 03:10:15;;;;;;;13.87;7.47;;;23.50;78.40;;;;;;5113497;28;20243;-68
2022/08/26 03:12:44;;;;;;;12.83;7.20;;;23.50;78.60;;;;;;5100532;28;20550;-68
2022/08/26 03:15:15;;;;;;;8.63;7.30;;;23.50;78.70;;;;;;5101541;28;20200;-68
2022/08/26 03:17:47;;;;;;;7.67;6.93;;;23.40;78.60;;;;;;5105460;28;20991;-68
2022/08/26 03:20:17;;;;;;;14.97;7.63;;;23.40;79.20;;;;;;5120436;28;20246;-68
2022/08/26 03:22:44;;;;;;;8.30;7.17;;;23.40;78.70;;;;;;5117960;28;20253;-68
2022/08/26 03:25:14;;;;;;;9.27;7.73;;;23.40;78.90;;;;;;5120267;28;20268;-68
2022/08/26 03:27:41;;;;;;;10.03;7.17;;;23.30;79.20;;;;;;5098258;28;20251;-68
2022/08/26 03:32:55;;;;;;;10.67;8.07;;;23.30;79.20;;;;;;5116406;28;20192;-68
2022/08/26 03:35:22;;;;;;;10.17;7.00;;;23.30;79.10;;;;;;5102218;28;20223;-68
2022/08/26 03:37:51;;;;;;;9.03;7.90;;;23.30;79.20;;;;;;5114747;28;20269;-68
2022/08/26 03:40:18;;;;;;;10.97;8.10;;;23.30;79.50;;;;;;5121960;28;20204;-68
2022/08/26 03:42:46;;;;;;;11.23;7.50;;;23.30;79.70;;;;;;5115441;28;20229;-68
2022/08/26 03:45:16;;;;;;;9.43;7.37;;;23.30;79.60;;;;;;5116904;28;20538;-68
2022/08/26 03:47:43;;;;;;;9.53;7.23;;;23.30;79.50;;;;;;5104314;28;20256;-68
2022/08/26 03:50:14;;;;;;;8.30;7.40;;;23.20;79.40;;;;;;5107246;28;20227;-68
2022/08/26 03:52:42;;;;;;;11.23;7.87;;;23.20;79.60;;;;;;5113049;28;20211;-68
2022/08/26 03:55:10;;;;;;;11.50;7.87;;;23.20;79.50;;;;;;5113546;28;20219;-68
2022/08/26 03:57:38;;;;;;;14.17;8.10;;;23.20;79.50;;;;;;5122018;27;20215;-68
2022/08/26 04:00:07;;;;;;;12.40;8.40;;;23.20;79.70;;;;;;5121768;27;20204;-68
2022/08/26 04:02:34;;;;;;;10.37;8.37;;;23.10;79.80;;;;;;5124502;27;20287;-68
2022/08/26 04:05:01;;;;;;;9.40;7.17;;;23.10;80.00;;;;;;5124004;27;20207;-67
2022/08/26 04:07:29;;;;;;;9.70;7.63;;;23.10;80.20;;;;;;5118846;27;20279;-67
2022/08/26 04:09:58;;;;;;;8.60;7.70;;;23.10;80.30;;;;;;5119284;27;20235;-68
2022/08/26 04:12:26;;;;;;;9.30;7.53;;;23.10;80.30;;;;;;5086734;28;20205;-67
2022/08/26 04:14:53;;;;;;;14.97;8.20;;;23.10;80.50;;;;;;5117905;27;20530;-68
2022/08/26 04:17:24;;;;;;;11.80;8.13;;;23.10;80.50;;;;;;5118285;27;20494;-68
2022/08/26 04:19:52;;;;;;;8.87;7.87;;;23.10;80.50;;;;;;5120188;27;20196;-68
2022/08/26 04:22:19;;;;;;;9.67;7.30;;;23.10;80.40;;;;;;5123660;27;20223;-68
2022/08/26 04:24:51;;;;;;;11.73;7.73;;;23.10;80.50;;;;;;5106522;27;20558;-68
2022/08/26 04:27:19;;;;;;;13.40;7.93;;;23.00;80.60;;;;;;5124349;27;20215;-68
2022/08/26 04:29:46;;;;;;;14.33;8.63;;;23.00;80.60;;;;;;5122463;27;20727;-68
2022/08/26 04:32:15;;;;;;;9.77;8.40;;;23.00;80.90;;;;;;5107302;27;20200;-68
2022/08/26 04:34:42;;;;;;;9.73;7.63;;;23.00;81.00;;;;;;5117847;27;20253;-68
2022/08/26 04:37:10;;;;;;;10.23;7.37;;;23.00;81.10;;;;;;5119474;27;20223;-68
2022/08/26 04:39:37;;;;;;;11.33;8.00;;;23.00;81.20;;;;;;5118382;27;20214;-68
2022/08/26 04:42:05;;;;;;;13.40;8.10;;;23.00;81.30;;;;;;5106294;27;20192;-68
2022/08/26 04:44:34;;;;;;;12.00;8.50;;;23.00;81.40;;;;;;5117821;27;20192;-68
2022/08/26 04:47:02;;;;;;;11.37;7.87;;;23.00;81.40;;;;;;5090293;27;20201;-68
2022/08/26 04:49:29;;;;;;;9.37;7.73;;;22.90;81.50;;;;;;5118335;27;20220;-68
2022/08/26 04:52:02;;;;;;;10.27;8.07;;;22.90;81.70;;;;;;5101507;27;20204;-68
2022/08/26 04:54:30;;;;;;;9.70;8.70;;;23.00;81.90;;;;;;5119265;27;20203;-68
2022/08/26 04:56:58;;;;;;;12.60;8.47;;;23.00;81.90;;;;;;5091887;28;20215;-68
2022/08/26 04:59:25;;;;;;;9.33;8.40;;;23.00;82.00;;;;;;5112476;27;20837;-68
2022/08/26 05:01:56;;;;;;;8.57;7.67;;;23.00;81.90;;;;;;5116584;27;20196;-68
2022/08/26 05:04:23;;;;;;;9.77;8.53;;;23.00;81.70;;;;;;5117337;27;20211;-68
2022/08/26 05:06:51;;;;;;;11.40;7.97;;;23.10;81.70;;;;;;5123144;27;20282;-68
2022/08/26 05:09:21;;;;;;;12.07;8.00;;;23.10;81.80;;;;;;5120367;27;20220;-68
2022/08/26 05:11:48;;;;;;;9.67;8.70;;;23.10;81.90;;;;;;5118868;27;20254;-68
2022/08/26 05:14:19;;;;;;;10.50;8.87;;;23.20;82.00;;;;;;5106291;27;20196;-68
2022/08/26 05:16:46;;;;;;;13.40;9.80;;;23.20;81.90;;;;;;5099690;27;20203;-68
2022/08/26 05:19:15;;;;;;;10.43;7.87;;;23.20;81.80;;;;;;5118101;27;20236;-68
2022/08/26 05:21:46;;;;;;;10.07;7.50;;;23.30;81.70;;;;;;5122641;27;20231;-68
2022/08/26 05:24:14;;;;;;;9.47;7.90;;;23.30;81.60;;;;;;5097950;27;20209;-68
2022/08/26 05:26:41;;;;;;;11.03;9.00;;;23.40;81.50;;;;;;5117059;27;20204;-68
2022/08/26 05:29:10;;;;;;;8.83;7.57;;;23.50;81.20;;;;;;5124329;27;20216;-68
2022/08/26 05:31:37;;;;;;;15.10;8.27;;;23.60;80.80;;;;;;5118839;27;20196;-67
2022/08/26 05:34:05;;;;;;;10.17;7.33;;;23.70;80.50;;;;;;5119354;27;20193;-67
2022/08/26 05:36:35;;;;;;;12.67;7.93;;;23.80;80.30;;;;;;5122153;27;20204;-67
2022/08/26 05:39:05;;;;;;;9.93;8.73;;;23.90;80.20;;;;;;5118869;27;20208;-67
2022/08/26 05:41:36;;;;;;;12.93;9.00;;;24.00;80.00;;;;;;5115207;27;20284;-67
2022/08/26 05:44:08;;;;;;;9.83;7.73;;;24.10;79.70;;;;;;5117910;27;20204;-67
2022/08/26 05:46:36;;;;;;;9.50;8.60;;;24.20;79.30;;;;;;5118992;27;20219;-67
2022/08/26 05:49:05;;;;;;;8.80;8.00;;;24.30;78.90;;;;;;5121449;27;20310;-67
2022/08/26 05:51:40;;;;;;;13.37;8.93;;;24.50;78.50;;;;;;5110769;27;20205;-68
2022/08/26 05:54:07;;;;;;;12.93;9.80;;;24.60;77.60;;;;;;5119367;27;20204;-68
2022/08/26 05:56:37;;;;;;;12.40;8.73;;;24.70;76.50;;;;;;5117370;27;20196;-67
2022/08/26 05:59:05;;;;;;;12.63;9.13;;;24.80;75.70;;;;;;5119271;27;20204;-67
2022/08/26 06:01:41;;;;;;;10.03;8.13;;;24.90;75.40;;;;;;5106532;27;20197;-67
2022/08/26 06:04:10;;;;;;;10.10;8.80;;;25.00;75.10;;;;;;5116052;27;20199;-67
2022/08/26 06:06:40;;;;;;;10.60;8.50;;;25.20;75.00;;;;;;5110965;27;20662;-67
2022/08/26 06:09:09;;;;;;;11.13;9.90;;;25.30;74.80;;;;;;5114559;27;20202;-67
2022/08/26 06:11:37;;;;;;;13.10;10.40;;;25.40;74.60;;;;;;5122135;27;20204;-67
2022/08/26 06:14:06;;;;;;;11.43;9.67;;;25.60;74.10;;;;;;5117354;27;20205;-67
2022/08/26 06:16:38;;;;;;;10.90;9.80;;;25.70;73.40;;;;;;5122542;27;20228;-67
2022/08/26 06:19:09;;;;;;;12.90;9.63;;;25.90;72.90;;;;;;5108302;28;20255;-67
2022/08/26 06:21:40;;;;;;;16.47;10.53;;;26.00;72.40;;;;;;5115474;27;20197;-68
2022/08/26 06:27:02;;;;;;;19.87;10.73;;;26.40;71.60;;;;;;5117236;27;20559;-67
2022/08/26 06:29:32;;;;;;;15.07;10.70;;;26.50;71.10;;;;;;5120295;27;20241;-67
2022/08/26 06:32:01;;;;;;;18.17;10.80;;;26.70;70.50;;;;;;5111890;27;20536;-67
2022/08/26 06:34:29;;;;;;;20.03;10.60;;;26.80;70.30;;;;;;5112792;27;20669;-67
2022/08/26 06:37:00;;;;;;;13.17;10.93;;;26.80;70.00;;;;;;5118043;27;20193;-67
2022/08/26 06:39:29;;;;;;;15.60;11.57;;;27.00;69.70;;;;;;5117750;27;20196;-68
2022/08/26 06:41:59;;;;;;;13.83;11.93;;;27.10;69.50;;;;;;5122209;27;20211;-68
2022/08/26 06:44:29;;;;;;;16.70;11.43;;;27.20;69.20;;;;;;5116474;27;20276;-67
2022/08/26 06:46:58;;;;;;;18.20;12.13;;;27.30;68.80;;;;;;5114051;27;20207;-67
2022/08/26 06:49:25;;;;;;;14.17;12.53;;;27.40;68.50;;;;;;5111787;27;20203;-67
2022/08/26 06:51:58;;;;;;;16.57;13.83;;;27.50;67.80;;;;;;5097725;27;20204;-67
2022/08/26 06:54:29;;;;;;;15.73;12.63;;;27.60;67.30;;;;;;5123638;27;20338;-67
2022/08/26 06:56:56;;;;;;;15.97;11.90;;;27.70;67.30;;;;;;5106863;28;20210;-67
2022/08/26 06:59:24;;;;;;;16.60;13.10;;;27.80;67.00;;;;;;5113475;27;20200;-67
2022/08/26 07:01:51;;;;;;;59.27;14.30;;;27.90;66.80;;;;;;5120266;27;20195;-67
2022/08/26 07:04:20;;;;;;;16.77;12.40;;;28.00;66.30;;;;;;5115055;28;20201;-67
2022/08/26 07:06:50;;;;;;;14.50;12.83;;;28.20;66.50;;;;;;5115457;27;20196;-67
2022/08/26 07:09:24;;;;;;;16.10;11.50;;;28.30;66.30;;;;;;5120142;28;20206;-67
2022/08/26 07:11:54;;;;;;;14.70;12.40;;;28.40;65.90;;;;;;5115858;27;20702;-67
2022/08/26 07:14:23;;;;;;;14.60;11.10;;;28.50;65.20;;;;;;5117107;27;20196;-68
2022/08/26 07:16:52;;;;;;;16.13;13.23;;;28.60;64.70;;;;;;5116979;27;20207;-67
2022/08/26 07:19:21;;;;;;;14.13;10.73;;;28.70;63.90;;;;;;5086636;28;20244;-67
2022/08/26 07:22:00;;;;;;;14.40;11.47;;;28.80;63.70;;;;;;5118783;28;20211;-67
2022/08/26 07:24:29;;;;;;;14.53;11.40;;;28.90;63.80;;;;;;5120612;28;20218;-67
2022/08/26 07:27:06;;;;;;;13.63;11.00;;;29.00;63.70;;;;;;5121008;28;20211;-67
2022/08/26 07:29:36;;;;;;;14.93;10.47;;;29.00;62.90;;;;;;5107486;28;20193;-67
2022/08/26 07:32:03;;;;;;;15.00;10.50;;;29.10;62.90;;;;;;5116158;27;20216;-67
2022/08/26 07:34:31;;;;;;;14.63;10.77;;;29.20;63.00;;;;;;5102212;27;20197;-67
2022/08/26 07:36:59;;;;;;;15.40;10.27;;;29.40;62.40;;;;;;5108419;27;20219;-68
2022/08/26 07:39:27;;;;;;;13.30;11.20;;;29.50;62.20;;;;;;5115926;27;20240;-67
2022/08/26 07:42:01;;;;;;;13.23;10.73;;;29.60;62.20;;;;;;5103720;27;20207;-67
2022/08/26 07:44:38;;;;;;;14.73;10.07;;;29.60;61.20;;;;;;5120021;27;20632;-67
2022/08/26 07:47:08;;;;;;;17.40;9.77;;;29.70;61.20;;;;;;5123385;27;20283;-67
2022/08/26 07:49:50;;;;;;;14.07;9.13;;;29.60;60.70;;;;;;5124090;27;20251;-67
2022/08/26 07:52:20;;;;;;;9.53;8.57;;;29.70;61.40;;;;;;5124701;27;20239;-67
2022/08/26 07:54:53;;;;;;;14.00;10.30;;;29.70;61.70;;;;;;5112813;27;20774;-68
2022/08/26 07:57:20;;;;;;;17.37;11.37;;;29.80;60.60;;;;;;5103705;27;20201;-68
2022/08/26 07:59:50;;;;;;;13.77;9.27;;;29.90;60.40;;;;;;5120066;27;20196;-68
2022/08/26 08:02:19;;;;;;;12.73;10.77;;;29.90;60.00;;;;;;5120440;27;20227;-68
2022/08/26 08:04:46;;;;;;;11.03;9.83;;;30.00;59.60;;;;;;5128948;27;20205;-67
2022/08/26 08:07:14;;;;;;;13.33;9.70;;;30.10;59.70;;;;;;5117649;27;20204;-67
2022/08/26 08:09:41;;;;;;;12.03;9.43;;;30.10;60.00;;;;;;5123987;27;20197;-67
2022/08/26 08:12:08;;;;;;;11.07;9.87;;;30.20;59.70;;;;;;5119080;27;20232;-67
2022/08/26 08:14:41;;;;;;;11.03;8.47;;;30.30;59.00;;;;;;5120823;27;20196;-67
2022/08/26 08:17:09;;;;;;;12.83;8.60;;;30.30;58.90;;;;;;5117489;27;20230;-67
2022/08/26 08:19:38;;;;;;;9.43;8.43;;;30.40;59.20;;;;;;5114733;27;20224;-67
2022/08/26 08:22:05;;;;;;;11.57;8.20;;;30.50;57.90;;;;;;5120361;27;20195;-67
2022/08/26 08:24:43;;;;;;;11.87;8.40;;;30.50;58.30;;;;;;5107991;27;20195;-67
2022/08/26 08:27:10;;;;;;;11.87;7.63;;;30.60;57.80;;;;;;5125663;27;20210;-67
2022/08/26 08:29:40;;;;;;;13.83;9.53;;;30.60;56.90;;;;;;5119796;27;20205;-67
2022/08/26 08:32:07;;;;;;;10.47;8.07;;;30.60;57.40;;;;;;5108301;27;20203;-67
2022/08/26 08:34:41;;;;;;;8.80;7.73;;;30.70;57.10;;;;;;5119338;27;20607;-67
2022/08/26 08:37:14;;;;;;;8.63;7.73;;;30.70;55.90;;;;;;5111241;27;20208;-68
2022/08/26 08:39:41;;;;;;;11.50;8.13;;;30.80;55.80;;;;;;5087057;28;20200;-67
2022/08/26 08:42:30;;;;;;;89.83;62.67;;;30.90;56.50;;;;;;5117215;27;20709;-67
2022/08/26 08:45:02;;;;;;;8.83;7.93;;;31.00;56.10;;;;;;5124887;27;20208;-67
2022/08/26 08:47:35;;;;;;;12.67;8.47;;;31.20;56.50;;;;;;5117588;27;20197;-67
2022/08/26 08:50:26;;;;;;;8.37;7.40;;;31.30;56.50;;;;;;5118757;27;20212;-67
2022/08/26 08:53:17;;;;;;;9.33;7.33;;;31.50;57.00;;;;;;5120187;27;20538;-67
2022/08/26 08:55:57;;;;;;;75.53;34.93;;;31.70;55.40;;;;;;5102816;27;20200;-67
2022/08/26 08:58:39;;;;;;;61.33;28.23;;;31.80;53.80;;;;;;5104317;27;20192;-67
2022/08/26 09:01:17;;;;;;;10.23;6.77;;;31.80;53.50;;;;;;5114572;27;20207;-67
2022/08/26 09:04:19;;;;;;;7.73;6.63;;;31.80;52.80;;;;;;5114234;27;20276;-67
2022/08/26 09:06:48;;;;;;;7.77;6.97;;;31.90;53.20;;;;;;5065086;27;20212;-67
2022/08/26 09:09:47;;;;;;;7.33;5.53;;;31.90;53.70;;;;;;5121700;27;20549;-66
2022/08/26 09:12:24;;;;;;;6.93;6.23;;;32.00;52.50;;;;;;5120073;27;20212;-67
2022/08/26 09:15:15;;;;;;;6.63;5.80;;;32.10;52.70;;;;;;5104490;27;20188;-67
2022/08/26 09:17:50;;;;;;;8.83;6.17;;;32.20;52.00;;;;;;5120252;27;20256;-67
2022/08/26 09:20:32;;;;;;;8.80;6.20;;;32.40;51.20;;;;;;5118734;27;20208;-67
2022/08/26 09:22:59;;;;;;;10.40;6.57;;;32.50;52.00;;;;;;5118244;27;20659;-67
2022/08/26 09:25:26;;;;;;;9.83;6.67;;;32.70;51.60;;;;;;5121091;27;20196;-67
2022/08/26 09:27:54;;;;;;;7.50;6.37;;;32.80;51.20;;;;;;5110668;27;20209;-67
2022/08/26 09:30:25;;;;;;;10.27;6.67;;;32.80;50.70;;;;;;5119265;27;20220;-67
2022/08/26 09:33:01;;;;;;;8.27;6.67;;;32.80;51.90;;;;;;5092751;28;20273;-67
2022/08/26 09:35:35;;;;;;;7.23;5.83;;;32.80;51.90;;;;;;5122471;27;20605;-67
2022/08/26 09:38:24;;;;;;;7.23;6.63;;;32.90;52.40;;;;;;5122027;27;20496;-67
2022/08/26 09:40:55;;;;;;;7.30;5.67;;;33.10;50.60;;;;;;5114915;27;20630;-67
2022/08/26 09:43:27;;;;;;;7.90;6.73;;;33.00;51.20;;;;;;5118931;27;20265;-67
2022/08/26 09:46:08;;;;;;;13.50;6.23;;;33.10;51.30;;;;;;5115707;27;20196;-67
2022/08/26 09:48:38;;;;;;;8.27;5.97;;;33.20;51.00;;;;;;5115349;27;20204;-67
2022/08/26 09:51:25;;;;;;;9.70;6.50;;;33.30;50.90;;;;;;5116316;27;20216;-67
2022/08/26 09:53:55;;;;;;;9.33;6.40;;;33.40;51.70;;;;;;5114112;27;20199;-67
2022/08/26 09:56:24;;;;;;;10.03;6.83;;;33.60;50.80;;;;;;5115908;27;20580;-67
2022/08/26 09:58:54;;;;;;;8.13;6.63;;;33.60;50.60;;;;;;5119980;27;20192;-67
2022/08/26 10:01:30;;;;;;;8.87;6.63;;;33.80;50.10;;;;;;5117468;27;20708;-67
2022/08/26 10:04:13;;;;;;;7.97;6.73;;;33.80;49.30;;;;;;5117053;27;20258;-68
2022/08/26 10:06:53;;;;;;;9.43;6.47;;;33.70;49.40;;;;;;5118697;27;20600;-67
2022/08/26 10:09:22;;;;;;;10.67;6.97;;;33.70;48.90;;;;;;5111878;27;20632;-67
2022/08/26 10:11:57;;;;;;;9.80;7.10;;;33.50;49.00;;;;;;5113373;27;20215;-67
2022/08/26 10:14:32;;;;;;;9.30;6.17;;;33.50;50.60;;;;;;5118654;27;20199;-67
2022/08/26 10:17:05;;;;;;;7.97;6.53;;;33.60;49.60;;;;;;5119239;27;20196;-67
2022/08/26 10:19:39;;;;;;;6.63;5.30;;;33.60;49.70;;;;;;5123672;27;20721;-67
2022/08/26 10:22:44;;;;;;;7.53;6.30;;;33.60;48.10;;;;;;5117435;27;20232;-67
2022/08/26 10:25:16;;;;;;;7.73;6.20;;;33.60;47.70;;;;;;5117205;27;20201;-67
2022/08/26 10:27:58;;;;;;;9.60;5.40;;;33.60;48.70;;;;;;5096252;27;20514;-67
2022/08/26 10:30:44;;;;;;;7.57;6.60;;;33.60;48.90;;;;;;5114532;27;20215;-67
2022/08/26 10:33:14;;;;;;;7.73;6.43;;;33.80;49.20;;;;;;5114114;27;20196;-67
2022/08/26 10:35:51;;;;;;;8.37;5.80;;;33.90;48.70;;;;;;5113269;27;20197;-67
2022/08/26 10:38:26;;;;;;;7.50;5.57;;;34.00;47.60;;;;;;5118778;27;20283;-67
2022/08/26 10:41:14;;;;;;;8.07;5.10;;;34.10;45.50;;;;;;5115747;27;20199;-67
2022/08/26 10:43:49;;;;;;;7.93;5.50;;;33.90;46.30;;;;;;5120209;27;20211;-67
2022/08/26 10:46:23;;;;;;;7.90;5.40;;;34.00;46.50;;;;;;5119067;27;20665;-67
2022/08/26 10:49:19;;;;;;;6.57;5.93;;;33.90;44.00;;;;;;5121001;27;20248;-67
2022/08/26 10:52:22;;;;;;;11.57;6.20;;;33.70;45.60;;;;;;5107255;27;20248;-67
2022/08/26 10:55:18;;;;;;;7.60;5.30;;;33.70;47.50;;;;;;5113389;27;20191;-67
2022/08/26 10:58:28;;;;;;;11.53;5.30;;;33.80;47.50;;;;;;5119803;27;20249;-67
2022/08/26 11:04:07;;;;;;;10.03;6.07;;;34.10;46.80;;;;;;5119197;27;20218;-67
2022/08/26 11:06:35;;;;;;;8.17;5.70;;;34.20;47.30;;;;;;5117126;27;20211;-67
2022/08/26 11:09:06;;;;;;;7.73;5.90;;;34.30;46.70;;;;;;5099268;27;20225;-67
2022/08/26 11:11:39;;;;;;;8.77;6.07;;;34.40;46.50;;;;;;5119028;27;20243;-67
2022/08/26 11:14:10;;;;;;;7.03;6.30;;;34.50;46.10;;;;;;5121739;28;20646;-67
2022/08/26 11:16:45;;;;;;;10.17;6.63;;;34.40;45.60;;;;;;5110720;27;20211;-67
2022/08/26 11:19:40;;;;;;;6.80;5.57;;;34.40;46.80;;;;;;5114084;27;20241;-67
2022/08/26 11:22:37;;;;;;;8.70;6.00;;;34.40;45.90;;;;;;5116432;28;20227;-67
2022/08/26 11:25:20;;;;;;;9.13;5.50;;;34.40;46.70;;;;;;5118712;28;20202;-67
2022/08/26 11:27:47;;;;;;;12.87;5.70;;;34.40;46.50;;;;;;5115788;28;20204;-66
2022/08/26 11:30:14;;;;;;;9.17;6.20;;;34.50;45.70;;;;;;5104378;28;20603;-66
2022/08/26 11:32:51;;;;;;;8.77;5.77;;;34.50;45.70;;;;;;5111153;28;20200;-67
2022/08/26 11:35:18;;;;;;;7.90;5.10;;;34.40;45.70;;;;;;5113188;28;20219;-66
2022/08/26 11:38:02;;;;;;;7.63;5.30;;;34.40;45.40;;;;;;5114668;28;20253;-66
2022/08/26 11:40:37;;;;;;;11.43;5.40;;;34.20;45.20;;;;;;5118003;28;20197;-66
2022/08/26 11:43:11;;;;;;;8.53;5.37;;;34.00;44.90;;;;;;5113421;28;20202;-67
2022/08/26 11:45:47;;;;;;;9.07;5.37;;;33.80;45.40;;;;;;5117717;28;20192;-67
2022/08/26 11:48:19;;;;;;;7.13;5.30;;;33.90;46.00;;;;;;5117115;28;20265;-66
2022/08/26 11:50:53;;;;;;;6.80;5.37;;;34.00;46.30;;;;;;5101747;28;20247;-67
2022/08/26 11:53:21;;;;;;;10.43;5.10;;;34.10;46.00;;;;;;5115653;28;20192;-66
2022/08/26 11:55:52;;;;;;;8.73;5.00;;;34.20;46.20;;;;;;5115458;28;20207;-66
2022/08/26 11:58:21;;;;;;;5.43;4.93;;;34.30;45.40;;;;;;5110562;28;20204;-66
2022/08/26 12:00:53;;;;;;;6.53;5.67;;;34.40;45.40;;;;;;5111073;28;20209;-66
2022/08/26 12:03:25;;;;;;;6.87;5.37;;;34.50;45.70;;;;;;5115129;28;20205;-66
2022/08/26 12:05:53;;;;;;;8.50;5.77;;;34.60;45.60;;;;;;5121689;28;20212;-66
2022/08/26 12:08:26;;;;;;;23.23;5.60;;;34.70;45.30;;;;;;5120021;28;20208;-66
2022/08/26 12:11:08;;;;;;;5.10;4.60;;;34.70;45.20;;;;;;5114002;28;20212;-66
2022/08/26 12:13:37;;;;;;;7.63;5.20;;;34.70;44.00;;;;;;5116932;28;20192;-66
2022/08/26 12:16:05;;;;;;;6.57;4.73;;;34.70;44.30;;;;;;5116056;28;20203;-66
2022/08/26 12:18:36;;;;;;;7.03;4.47;;;34.70;44.90;;;;;;5118298;27;20611;-66
2022/08/26 12:21:33;;;;;;;6.47;5.20;;;34.70;45.20;;;;;;5120223;27;20192;-66
2022/08/26 12:24:02;;;;;;;8.03;4.93;;;34.70;45.30;;;;;;5092129;27;20598;-66
2022/08/26 12:26:33;;;;;;;6.87;5.00;;;34.80;45.50;;;;;;5118170;27;20208;-67
2022/08/26 12:29:21;;;;;;;8.00;5.83;;;34.80;46.40;;;;;;5124545;27;20209;-66
2022/08/26 12:32:16;;;;;;;6.17;5.57;;;34.90;46.00;;;;;;5119891;27;20215;-66
2022/08/26 12:34:46;;;;;;;7.17;5.53;;;34.80;44.50;;;;;;5121978;27;20534;-66
2022/08/26 12:37:14;;;;;;;8.40;5.57;;;34.90;44.90;;;;;;5125537;27;20228;-67
2022/08/26 12:39:43;;;;;;;14.63;4.97;;;34.90;45.60;;;;;;5098364;27;20264;-66
2022/08/26 12:42:16;;;;;;;6.00;5.40;;;34.80;45.10;;;;;;5118828;27;20197;-67
2022/08/26 12:45:02;;;;;;;5.77;4.93;;;34.80;45.30;;;;;;5112298;27;20212;-67
2022/08/26 12:47:33;;;;;;;9.57;5.37;;;34.80;45.40;;;;;;5120632;27;20203;-67
2022/08/26 12:50:09;;;;;;;8.87;5.60;;;34.90;46.30;;;;;;5117338;27;20207;-65
2022/08/26 12:53:00;;;;;;;5.53;5.03;;;34.90;45.90;;;;;;5118718;27;20231;-66
2022/08/26 12:55:30;;;;;;;7.60;5.43;;;34.90;45.00;;;;;;5120804;27;20644;-66
2022/08/26 12:58:20;;;;;;;6.63;5.73;;;34.90;45.00;;;;;;5123673;27;20215;-65
2022/08/26 13:00:56;;;;;;;8.90;5.10;;;34.90;45.60;;;;;;5123068;27;20216;-65
2022/08/26 13:03:29;;;;;;;6.67;4.60;;;34.90;44.50;;;;;;5120815;27;20260;-66
2022/08/26 13:06:21;;;;;;;8.60;4.93;;;34.90;44.90;;;;;;5112030;27;20197;-66
2022/08/26 13:08:51;;;;;;;5.93;5.17;;;34.80;45.10;;;;;;5113445;27;20206;-66
2022/08/26 13:11:41;;;;;;;5.13;4.60;;;34.70;44.60;;;;;;5121263;27;20232;-66
2022/08/26 13:14:11;;;;;;;6.80;4.40;;;34.70;44.70;;;;;;5111170;27;20221;-66
2022/08/26 13:16:50;;;;;;;8.77;5.00;;;34.60;43.60;;;;;;5085767;27;20205;-66